sensor_id;sensor_type;location;lat;lon;timestamp;pressure;altitude;pressure_sealevel;temperature;humidity
65997;BME280;52765;52.258;21.052;2023-03-21T00:00:56;100450.22;;;8.96;100.00
65997;BME280;52765;52.258;21.052;2023-03-21T00:03:22;100454.75;;;8.95;100.00
65997;BME280;52765;52.258;21.052;2023-03-21T00:05:48;100446.56;;;8.87;100.00
65997;BME280;52765;52.258;21.052;2023-03-21T00:08:19;100449.94;;;8.89;100.00
65997;BME280;52765;52.258;21.052;2023-03-21T00:10:46;100445.59;;;8.88;100.00
65997;BME280;52765;52.258;21.052;2023-03-21T00:13:12;100450.81;;;8.89;100.00
65997;BME280;52765;52.258;21.052;2023-03-21T00:15:38;100437.53;;;8.88;100.00
65997;BME280;52765;52.258;21.052;2023-03-21T00:18:16;100439.06;;;8.91;100.00
65997;BME280;52765;52.258;21.052;2023-03-21T00:20:41;100438.09;;;8.92;100.00
65997;BME280;52765;52.258;21.052;2023-03-21T00:23:10;100443.03;;;8.96;100.00
65997;BME280;52765;52.258;21.052;2023-03-21T00:25:36;100437.81;;;8.95;100.00
65997;BME280;52765;52.258;21.052;2023-03-21T00:28:01;100433.53;;;8.92;100.00
65997;BME280;52765;52.258;21.052;2023-03-21T00:30:27;100440.06;;;8.89;100.00
65997;BME280;52765;52.258;21.052;2023-03-21T00:32:52;100433.97;;;8.87;100.00
65997;BME280;52765;52.258;21.052;2023-03-21T00:35:18;100423.41;;;8.86;100.00
65997;BME280;52765;52.258;21.052;2023-03-21T00:37:43;100431.28;;;8.87;100.00
65997;BME280;52765;52.258;21.052;2023-03-21T00:40:09;100429.19;;;8.91;100.00
65997;BME280;52765;52.258;21.052;2023-03-21T00:42:35;100430.16;;;8.90;100.00
65997;BME280;52765;52.258;21.052;2023-03-21T00:45:02;100442.75;;;8.89;100.00
65997;BME280;52765;52.258;21.052;2023-03-21T00:47:29;100440.91;;;8.80;100.00
65997;BME280;52765;52.258;21.052;2023-03-21T00:49:54;100436.97;;;8.84;100.00
65997;BME280;52765;52.258;21.052;2023-03-21T00:52:20;100435.41;;;8.82;100.00
65997;BME280;52765;52.258;21.052;2023-03-21T00:54:45;100438.22;;;8.80;100.00
65997;BME280;52765;52.258;21.052;2023-03-21T00:57:11;100434.44;;;8.73;100.00
65997;BME280;52765;52.258;21.052;2023-03-21T00:59:36;100438.66;;;8.76;100.00
65997;BME280;52765;52.258;21.052;2023-03-21T01:02:02;100433.28;;;8.76;100.00
65997;BME280;52765;52.258;21.052;2023-03-21T01:04:32;100434.16;;;8.76;100.00
65997;BME280;52765;52.258;21.052;2023-03-21T01:06:58;100433.28;;;8.76;100.00
65997;BME280;52765;52.258;21.052;2023-03-21T01:09:25;100434.44;;;8.73;100.00
65997;BME280;52765;52.258;21.052;2023-03-21T01:11:51;100426.66;;;8.70;100.00
65997;BME280;52765;52.258;21.052;2023-03-21T01:14:21;100418.88;;;8.67;100.00
65997;BME280;52765;52.258;21.052;2023-03-21T01:16:48;100426.09;;;8.66;100.00
65997;BME280;52765;52.258;21.052;2023-03-21T01:19:16;100436.28;;;8.63;100.00
65997;BME280;52765;52.258;21.052;2023-03-21T01:21:42;100425.41;;;8.55;100.00
65997;BME280;52765;52.258;21.052;2023-03-21T01:24:08;100428.22;;;8.53;100.00
65997;BME280;52765;52.258;21.052;2023-03-21T01:26:35;100415.22;;;8.48;100.00
65997;BME280;52765;52.258;21.052;2023-03-21T01:29:03;100415.38;;;8.57;100.00
65997;BME280;52765;52.258;21.052;2023-03-21T01:31:29;100428.50;;;8.50;100.00
65997;BME280;52765;52.258;21.052;2023-03-21T01:33:54;100422.72;;;8.45;100.00
65997;BME280;52765;52.258;21.052;2023-03-21T01:36:22;100424.41;;;8.46;100.00
65997;BME280;52765;52.258;21.052;2023-03-21T01:38:49;100423.41;;;8.47;100.00
65997;BME280;52765;52.258;21.052;2023-03-21T01:41:29;100428.78;;;8.47;100.00
65997;BME280;52765;52.258;21.052;2023-03-21T01:43:55;100417.59;;;8.42;100.00
65997;BME280;52765;52.258;21.052;2023-03-21T01:52:06;100414.81;;;8.53;100.00
65997;BME280;52765;52.258;21.052;2023-03-21T01:54:35;100418.03;;;8.47;100.00
65997;BME280;52765;52.258;21.052;2023-03-21T01:57:06;100416.34;;;8.46;100.00
65997;BME280;52765;52.258;21.052;2023-03-21T01:59:44;100405.91;;;8.43;100.00
65997;BME280;52765;52.258;21.052;2023-03-21T02:02:14;100409.69;;;8.40;100.00
65997;BME280;52765;52.258;21.052;2023-03-21T02:04:42;100395.56;;;8.38;100.00
65997;BME280;52765;52.258;21.052;2023-03-21T02:07:26;100411.84;;;8.46;100.00
65997;BME280;52765;52.258;21.052;2023-03-21T02:09:54;100403.38;;;8.51;100.00
65997;BME280;52765;52.258;21.052;2023-03-21T02:12:20;100406.47;;;8.56;100.00
65997;BME280;52765;52.258;21.052;2023-03-21T02:14:48;100402.34;;;8.62;100.00
65997;BME280;52765;52.258;21.052;2023-03-21T02:17:29;100400.78;;;8.59;100.00
65997;BME280;52765;52.258;21.052;2023-03-21T02:31:47;100403.75;;;8.37;100.00
65997;BME280;52765;52.258;21.052;2023-03-21T02:37:21;100415.75;;;8.42;100.00
65997;BME280;52765;52.258;21.052;2023-03-21T02:45:28;100412.09;;;8.33;100.00
65997;BME280;52765;52.258;21.052;2023-03-21T02:48:08;100411.78;;;8.27;100.00
65997;BME280;52765;52.258;21.052;2023-03-21T02:50:45;100418.44;;;8.32;100.00
65997;BME280;52765;52.258;21.052;2023-03-21T02:53:15;100409.94;;;8.27;100.00
65997;BME280;52765;52.258;21.052;2023-03-21T02:55:42;100410.41;;;8.23;100.00
65997;BME280;52765;52.258;21.052;2023-03-21T02:58:13;100414.63;;;8.25;100.00
65997;BME280;52765;52.258;21.052;2023-03-21T03:00:41;100405.44;;;8.08;100.00
65997;BME280;52765;52.258;21.052;2023-03-21T03:03:12;100426.06;;;8.08;100.00
65997;BME280;52765;52.258;21.052;2023-03-21T03:05:49;100420.56;;;8.09;100.00
65997;BME280;52765;52.258;21.052;2023-03-21T03:11:11;100431.69;;;8.05;100.00
65997;BME280;52765;52.258;21.052;2023-03-21T03:16:37;100433.31;;;7.76;100.00
65997;BME280;52765;52.258;21.052;2023-03-21T03:19:09;100435.44;;;7.73;100.00
65997;BME280;52765;52.258;21.052;2023-03-21T03:21:58;100431.47;;;7.77;100.00
65997;BME280;52765;52.258;21.052;2023-03-21T03:26:58;100432.78;;;7.92;100.00
65997;BME280;52765;52.258;21.052;2023-03-21T03:29:29;100439.19;;;8.01;100.00
65997;BME280;52765;52.258;21.052;2023-03-21T03:31:59;100427.16;;;8.05;100.00
65997;BME280;52765;52.258;21.052;2023-03-21T03:34:31;100432.41;;;8.07;100.00
65997;BME280;52765;52.258;21.052;2023-03-21T03:37:01;100435.19;;;7.95;100.00
65997;BME280;52765;52.258;21.052;2023-03-21T03:39:36;100433.66;;;7.93;100.00
65997;BME280;52765;52.258;21.052;2023-03-21T03:42:04;100431.69;;;8.05;100.00
65997;BME280;52765;52.258;21.052;2023-03-21T03:44:32;100438.47;;;8.09;100.00
65997;BME280;52765;52.258;21.052;2023-03-21T03:46:59;100430.84;;;7.94;100.00
65997;BME280;52765;52.258;21.052;2023-03-21T03:49:30;100435.59;;;7.91;100.00
65997;BME280;52765;52.258;21.052;2023-03-21T03:52:04;100430.94;;;7.83;100.00
65997;BME280;52765;52.258;21.052;2023-03-21T03:54:37;100438.13;;;7.73;100.00
65997;BME280;52765;52.258;21.052;2023-03-21T03:57:05;100440.50;;;7.66;100.00
65997;BME280;52765;52.258;21.052;2023-03-21T03:59:36;100440.19;;;7.69;100.00
65997;BME280;52765;52.258;21.052;2023-03-21T04:02:01;100446.13;;;7.63;100.00
65997;BME280;52765;52.258;21.052;2023-03-21T04:04:27;100451.22;;;7.66;100.00
65997;BME280;52765;52.258;21.052;2023-03-21T04:06:54;100451.09;;;7.68;100.00
65997;BME280;52765;52.258;21.052;2023-03-21T04:09:20;100436.13;;;7.75;100.00
65997;BME280;52765;52.258;21.052;2023-03-21T04:11:46;100437.00;;;7.85;100.00
65997;BME280;52765;52.258;21.052;2023-03-21T04:14:11;100437.16;;;7.93;100.00
65997;BME280;52765;52.258;21.052;2023-03-21T04:16:37;100441.44;;;7.96;100.00
65997;BME280;52765;52.258;21.052;2023-03-21T04:19:03;100435.16;;;7.86;100.00
65997;BME280;52765;52.258;21.052;2023-03-21T04:21:28;100437.28;;;7.82;100.00
65997;BME280;52765;52.258;21.052;2023-03-21T04:23:54;100432.88;;;7.71;100.00
65997;BME280;52765;52.258;21.052;2023-03-21T04:26:20;100441.84;;;7.60;100.00
65997;BME280;52765;52.258;21.052;2023-03-21T04:28:47;100443.41;;;7.53;100.00
65997;BME280;52765;52.258;21.052;2023-03-21T04:31:13;100438.13;;;7.42;100.00
65997;BME280;52765;52.258;21.052;2023-03-21T04:33:39;100437.03;;;7.45;100.00
65997;BME280;52765;52.258;21.052;2023-03-21T04:36:05;100438.47;;;7.58;100.00
65997;BME280;52765;52.258;21.052;2023-03-21T04:38:34;100446.97;;;7.64;100.00
65997;BME280;52765;52.258;21.052;2023-03-21T04:41:00;100445.72;;;7.68;100.00
65997;BME280;52765;52.258;21.052;2023-03-21T04:43:25;100440.22;;;7.79;100.00
65997;BME280;52765;52.258;21.052;2023-03-21T04:45:53;100451.84;;;7.89;100.00
65997;BME280;52765;52.258;21.052;2023-03-21T04:48:18;100439.59;;;7.96;100.00
65997;BME280;52765;52.258;21.052;2023-03-21T04:50:45;100439.16;;;7.91;100.00
65997;BME280;52765;52.258;21.052;2023-03-21T04:53:11;100440.41;;;7.87;100.00
65997;BME280;52765;52.258;21.052;2023-03-21T04:55:36;100440.81;;;7.92;100.00
65997;BME280;52765;52.258;21.052;2023-03-21T04:58:03;100448.06;;;8.02;100.00
65997;BME280;52765;52.258;21.052;2023-03-21T05:00:28;100453.44;;;8.11;100.00
65997;BME280;52765;52.258;21.052;2023-03-21T05:02:54;100450.19;;;8.18;100.00
65997;BME280;52765;52.258;21.052;2023-03-21T05:05:22;100447.09;;;8.22;100.00
65997;BME280;52765;52.258;21.052;2023-03-21T05:07:48;100456.03;;;8.23;100.00
65997;BME280;52765;52.258;21.052;2023-03-21T05:10:13;100456.84;;;8.13;100.00
65997;BME280;52765;52.258;21.052;2023-03-21T05:12:39;100450.19;;;7.98;100.00
65997;BME280;52765;52.258;21.052;2023-03-21T05:15:06;100455.13;;;8.03;100.00
65997;BME280;52765;52.258;21.052;2023-03-21T05:17:31;100455.72;;;8.06;100.00
65997;BME280;52765;52.258;21.052;2023-03-21T05:19:57;100452.88;;;8.08;100.00
65997;BME280;52765;52.258;21.052;2023-03-21T05:22:23;100461.56;;;7.90;100.00
65997;BME280;52765;52.258;21.052;2023-03-21T05:24:51;100453.38;;;7.82;100.00
65997;BME280;52765;52.258;21.052;2023-03-21T05:27:20;100468.88;;;7.78;100.00
65997;BME280;52765;52.258;21.052;2023-03-21T05:30:07;100459.88;;;7.80;100.00
65997;BME280;52765;52.258;21.052;2023-03-21T05:32:33;100455.25;;;7.91;100.00
65997;BME280;52765;52.258;21.052;2023-03-21T05:34:59;100463.44;;;8.00;100.00
65997;BME280;52765;52.258;21.052;2023-03-21T05:37:24;100468.25;;;8.06;100.00
65997;BME280;52765;52.258;21.052;2023-03-21T05:39:50;100471.59;;;7.88;100.00
65997;BME280;52765;52.258;21.052;2023-03-21T05:42:18;100472.41;;;7.79;100.00
65997;BME280;52765;52.258;21.052;2023-03-21T05:44:45;100471.25;;;7.72;100.00
65997;BME280;52765;52.258;21.052;2023-03-21T05:47:15;100467.69;;;7.62;100.00
65997;BME280;52765;52.258;21.052;2023-03-21T05:49:41;100472.88;;;7.53;100.00
65997;BME280;52765;52.258;21.052;2023-03-21T05:52:07;100477.41;;;7.63;100.00
65997;BME280;52765;52.258;21.052;2023-03-21T05:54:33;100480.41;;;7.59;100.00
65997;BME280;52765;52.258;21.052;2023-03-21T05:56:58;100483.78;;;7.62;100.00
65997;BME280;52765;52.258;21.052;2023-03-21T05:59:24;100492.81;;;7.60;100.00
65997;BME280;52765;52.258;21.052;2023-03-21T06:01:49;100486.69;;;7.49;100.00
65997;BME280;52765;52.258;21.052;2023-03-21T06:04:15;100479.47;;;7.39;100.00
65997;BME280;52765;52.258;21.052;2023-03-21T06:06:43;100495.72;;;7.48;100.00
65997;BME280;52765;52.258;21.052;2023-03-21T06:09:11;100502.13;;;7.56;100.00
65997;BME280;52765;52.258;21.052;2023-03-21T06:11:39;100501.94;;;7.48;100.00
65997;BME280;52765;52.258;21.052;2023-03-21T06:14:11;100494.06;;;7.56;100.00
65997;BME280;52765;52.258;21.052;2023-03-21T06:16:36;100508.09;;;7.70;100.00
65997;BME280;52765;52.258;21.052;2023-03-21T06:19:02;100505.53;;;7.68;100.00
65997;BME280;52765;52.258;21.052;2023-03-21T06:21:27;100511.88;;;7.67;100.00
65997;BME280;52765;52.258;21.052;2023-03-21T06:23:53;100501.72;;;7.71;100.00
65997;BME280;52765;52.258;21.052;2023-03-21T06:26:18;100508.75;;;7.62;100.00
65997;BME280;52765;52.258;21.052;2023-03-21T06:28:47;100498.59;;;7.66;100.00
65997;BME280;52765;52.258;21.052;2023-03-21T06:31:13;100512.31;;;7.72;100.00
65997;BME280;52765;52.258;21.052;2023-03-21T06:33:38;100507.72;;;7.84;100.00
65997;BME280;52765;52.258;21.052;2023-03-21T06:36:04;100505.59;;;7.78;100.00
65997;BME280;52765;52.258;21.052;2023-03-21T06:38:30;100525.13;;;7.90;100.00
65997;BME280;52765;52.258;21.052;2023-03-21T06:40:56;100514.81;;;7.95;100.00
65997;BME280;52765;52.258;21.052;2023-03-21T06:43:21;100514.97;;;7.93;100.00
65997;BME280;52765;52.258;21.052;2023-03-21T06:45:47;100525.19;;;7.78;100.00
65997;BME280;52765;52.258;21.052;2023-03-21T06:48:12;100525.38;;;7.56;100.00
65997;BME280;52765;52.258;21.052;2023-03-21T06:50:38;100520.44;;;7.51;100.00
65997;BME280;52765;52.258;21.052;2023-03-21T06:53:04;100520.94;;;7.45;100.00
65997;BME280;52765;52.258;21.052;2023-03-21T06:55:30;100523.88;;;7.42;100.00
65997;BME280;52765;52.258;21.052;2023-03-21T06:57:58;100524.41;;;7.36;100.00
65997;BME280;52765;52.258;21.052;2023-03-21T07:00:24;100518.34;;;7.34;100.00
65997;BME280;52765;52.258;21.052;2023-03-21T07:02:50;100523.97;;;7.31;100.00
65997;BME280;52765;52.258;21.052;2023-03-21T07:05:16;100535.69;;;7.30;100.00
65997;BME280;52765;52.258;21.052;2023-03-21T07:07:41;100533.56;;;7.33;100.00
65997;BME280;52765;52.258;21.052;2023-03-21T07:10:07;100536.31;;;7.43;100.00
65997;BME280;52765;52.258;21.052;2023-03-21T07:12:33;100537.41;;;7.40;100.00
65997;BME280;52765;52.258;21.052;2023-03-21T07:15:00;100539.97;;;7.42;100.00
65997;BME280;52765;52.258;21.052;2023-03-21T07:17:26;100538.63;;;7.48;100.00
65997;BME280;52765;52.258;21.052;2023-03-21T07:19:52;100538.50;;;7.59;100.00
65997;BME280;52765;52.258;21.052;2023-03-21T07:22:17;100546.97;;;7.54;100.00
65997;BME280;52765;52.258;21.052;2023-03-21T07:24:43;100528.03;;;7.46;100.00
65997;BME280;52765;52.258;21.052;2023-03-21T07:27:08;100525.09;;;7.59;100.00
65997;BME280;52765;52.258;21.052;2023-03-21T07:29:34;100535.88;;;7.69;100.00
65997;BME280;52765;52.258;21.052;2023-03-21T07:31:59;100537.41;;;7.62;100.00
65997;BME280;52765;52.258;21.052;2023-03-21T07:34:25;100539.56;;;7.68;100.00
65997;BME280;52765;52.258;21.052;2023-03-21T07:36:55;100536.38;;;7.84;100.00
65997;BME280;52765;52.258;21.052;2023-03-21T07:39:21;100543.50;;;8.04;100.00
65997;BME280;52765;52.258;21.052;2023-03-21T07:41:47;100541.88;;;8.13;100.00
65997;BME280;52765;52.258;21.052;2023-03-21T07:44:13;100547.94;;;8.15;100.00
65997;BME280;52765;52.258;21.052;2023-03-21T07:46:38;100530.03;;;8.25;100.00
65997;BME280;52765;52.258;21.052;2023-03-21T07:49:04;100539.25;;;8.42;100.00
65997;BME280;52765;52.258;21.052;2023-03-21T07:51:30;100541.00;;;8.53;100.00
65997;BME280;52765;52.258;21.052;2023-03-21T07:53:56;100533.94;;;8.62;100.00
65997;BME280;52765;52.258;21.052;2023-03-21T07:56:21;100541.88;;;8.73;100.00
65997;BME280;52765;52.258;21.052;2023-03-21T07:58:47;100550.06;;;8.81;100.00
65997;BME280;52765;52.258;21.052;2023-03-21T08:01:12;100546.81;;;8.97;100.00
65997;BME280;52765;52.258;21.052;2023-03-21T08:03:38;100537.50;;;9.01;100.00
65997;BME280;52765;52.258;21.052;2023-03-21T08:06:03;100540.47;;;9.08;100.00
65997;BME280;52765;52.258;21.052;2023-03-21T08:08:29;100553.63;;;9.11;100.00
65997;BME280;52765;52.258;21.052;2023-03-21T08:10:55;100554.31;;;8.84;100.00
65997;BME280;52765;52.258;21.052;2023-03-21T08:13:20;100559.81;;;8.73;100.00
65997;BME280;52765;52.258;21.052;2023-03-21T08:15:45;100562.94;;;8.78;100.00
65997;BME280;52765;52.258;21.052;2023-03-21T08:18:11;100557.41;;;8.69;100.00
65997;BME280;52765;52.258;21.052;2023-03-21T08:20:37;100557.69;;;8.66;100.00
65997;BME280;52765;52.258;21.052;2023-03-21T08:23:03;100567.03;;;8.72;100.00
65997;BME280;52765;52.258;21.052;2023-03-21T08:25:28;100559.09;;;8.70;100.00
65997;BME280;52765;52.258;21.052;2023-03-21T08:27:54;100552.06;;;8.69;100.00
65997;BME280;52765;52.258;21.052;2023-03-21T08:30:22;100543.97;;;8.60;100.00
65997;BME280;52765;52.258;21.052;2023-03-21T08:32:50;100560.25;;;8.78;100.00
65997;BME280;52765;52.258;21.052;2023-03-21T08:35:18;100559.53;;;8.95;100.00
65997;BME280;52765;52.258;21.052;2023-03-21T08:37:44;100547.78;;;9.16;100.00
65997;BME280;52765;52.258;21.052;2023-03-21T08:40:12;100554.56;;;9.39;100.00
65997;BME280;52765;52.258;21.052;2023-03-21T08:42:42;100555.53;;;9.48;99.88
65997;BME280;52765;52.258;21.052;2023-03-21T08:45:09;100556.22;;;9.50;98.26
65997;BME280;52765;52.258;21.052;2023-03-21T08:47:35;100569.53;;;9.61;96.37
65997;BME280;52765;52.258;21.052;2023-03-21T08:50:03;100564.84;;;9.63;97.17
65997;BME280;52765;52.258;21.052;2023-03-21T08:52:30;100569.53;;;9.61;98.69
65997;BME280;52765;52.258;21.052;2023-03-21T08:54:56;100571.19;;;9.72;99.47
65997;BME280;52765;52.258;21.052;2023-03-21T08:57:22;100564.13;;;9.71;96.99
65997;BME280;52765;52.258;21.052;2023-03-21T08:59:47;100567.13;;;9.58;95.64
65997;BME280;52765;52.258;21.052;2023-03-21T09:02:14;100575.59;;;9.63;97.27
65997;BME280;52765;52.258;21.052;2023-03-21T09:04:40;100573.47;;;9.67;96.29
65997;BME280;52765;52.258;21.052;2023-03-21T09:07:06;100574.19;;;9.69;94.67
65997;BME280;52765;52.258;21.052;2023-03-21T09:09:31;100577.59;;;9.52;94.67
65997;BME280;52765;52.258;21.052;2023-03-21T09:11:57;100582.59;;;9.27;95.92
65997;BME280;52765;52.258;21.052;2023-03-21T09:14:23;100579.91;;;9.17;98.20
65997;BME280;52765;52.258;21.052;2023-03-21T09:16:48;100579.19;;;9.15;99.82
65997;BME280;52765;52.258;21.052;2023-03-21T09:19:14;100580.34;;;9.13;98.61
65997;BME280;52765;52.258;21.052;2023-03-21T09:21:40;100586.56;;;9.03;99.51
65997;BME280;52765;52.258;21.052;2023-03-21T09:24:05;100595.19;;;8.97;99.56
65997;BME280;52765;52.258;21.052;2023-03-21T09:26:31;100599.28;;;8.82;100.00
65997;BME280;52765;52.258;21.052;2023-03-21T09:28:57;100591.63;;;8.77;100.00
65997;BME280;52765;52.258;21.052;2023-03-21T09:31:25;100592.66;;;8.86;100.00
65997;BME280;52765;52.258;21.052;2023-03-21T09:33:53;100600.41;;;8.89;100.00
65997;BME280;52765;52.258;21.052;2023-03-21T09:36:20;100605.22;;;8.95;100.00
65997;BME280;52765;52.258;21.052;2023-03-21T09:38:52;100599.72;;;8.97;100.00
65997;BME280;52765;52.258;21.052;2023-03-21T09:44:24;100602.13;;;9.10;100.00
65997;BME280;52765;52.258;21.052;2023-03-21T09:47:08;100613.31;;;9.15;100.00
65997;BME280;52765;52.258;21.052;2023-03-21T09:50:19;100597.72;;;9.08;100.00
65997;BME280;52765;52.258;21.052;2023-03-21T09:52:49;100605.09;;;9.06;100.00
65997;BME280;52765;52.258;21.052;2023-03-21T09:55:23;100600.28;;;9.10;100.00
65997;BME280;52765;52.258;21.052;2023-03-21T09:58:04;100610.34;;;9.18;100.00
65997;BME280;52765;52.258;21.052;2023-03-21T10:00:36;100607.47;;;9.29;100.00
65997;BME280;52765;52.258;21.052;2023-03-21T10:03:16;100608.03;;;9.42;98.37
65997;BME280;52765;52.258;21.052;2023-03-21T10:05:45;100608.03;;;9.52;97.34
65997;BME280;52765;52.258;21.052;2023-03-21T10:08:30;100601.13;;;9.40;97.00
65997;BME280;52765;52.258;21.052;2023-03-21T10:11:09;100616.00;;;9.15;98.60
65997;BME280;52765;52.258;21.052;2023-03-21T10:13:41;100620.66;;;8.93;100.00
65997;BME280;52765;52.258;21.052;2023-03-21T10:16:26;100607.06;;;8.85;100.00
65997;BME280;52765;52.258;21.052;2023-03-21T10:18:53;100609.47;;;8.88;100.00
65997;BME280;52765;52.258;21.052;2023-03-21T10:21:24;100611.72;;;8.83;100.00
65997;BME280;52765;52.258;21.052;2023-03-21T10:23:52;100616.53;;;8.79;100.00
65997;BME280;52765;52.258;21.052;2023-03-21T10:26:21;100617.09;;;8.83;100.00
65997;BME280;52765;52.258;21.052;2023-03-21T10:28:49;100612.97;;;8.79;100.00
65997;BME280;52765;52.258;21.052;2023-03-21T10:31:19;100602.06;;;8.61;100.00
65997;BME280;52765;52.258;21.052;2023-03-21T10:33:48;100629.38;;;8.85;100.00
65997;BME280;52765;52.258;21.052;2023-03-21T10:36:25;100624.59;;;8.99;100.00
65997;BME280;52765;52.258;21.052;2023-03-21T10:38:55;100630.69;;;9.11;100.00
65997;BME280;52765;52.258;21.052;2023-03-21T10:41:22;100634.94;;;9.23;100.00
65997;BME280;52765;52.258;21.052;2023-03-21T10:44:10;100630.28;;;9.35;100.00
65997;BME280;52765;52.258;21.052;2023-03-21T10:46:36;100630.56;;;9.51;100.00
65997;BME280;52765;52.258;21.052;2023-03-21T10:49:02;100625.31;;;9.69;100.00
65997;BME280;52765;52.258;21.052;2023-03-21T10:51:32;100628.34;;;9.84;100.00
65997;BME280;52765;52.258;21.052;2023-03-21T10:54:05;100627.41;;;9.66;100.00
65997;BME280;52765;52.258;21.052;2023-03-21T10:56:37;100623.44;;;9.70;100.00
65997;BME280;52765;52.258;21.052;2023-03-21T10:59:05;100622.91;;;9.66;100.00
65997;BME280;52765;52.258;21.052;2023-03-21T11:01:42;100631.66;;;9.78;99.22
65997;BME280;52765;52.258;21.052;2023-03-21T11:04:18;100630.19;;;9.93;98.73
65997;BME280;52765;52.258;21.052;2023-03-21T11:06:54;100614.09;;;10.21;97.61
65997;BME280;52765;52.258;21.052;2023-03-21T11:09:22;100618.56;;;10.40;97.41
65997;BME280;52765;52.258;21.052;2023-03-21T11:12:00;100626.44;;;10.51;93.36
65997;BME280;52765;52.258;21.052;2023-03-21T11:14:40;100616.41;;;10.71;92.79
65997;BME280;52765;52.258;21.052;2023-03-21T11:17:19;100623.75;;;10.79;91.60
65997;BME280;52765;52.258;21.052;2023-03-21T11:19:59;100619.03;;;10.81;91.63
65997;BME280;52765;52.258;21.052;2023-03-21T11:22:28;100620.41;;;10.85;91.44
65997;BME280;52765;52.258;21.052;2023-03-21T11:25:03;100613.81;;;10.80;91.61
65997;BME280;52765;52.258;21.052;2023-03-21T11:27:30;100628.22;;;10.61;92.80
65997;BME280;52765;52.258;21.052;2023-03-21T11:29:58;100612.88;;;10.71;93.11
65997;BME280;52765;52.258;21.052;2023-03-21T11:32:36;100613.81;;;10.80;90.09
65997;BME280;52765;52.258;21.052;2023-03-21T11:35:13;100613.97;;;10.96;90.90
65997;BME280;52765;52.258;21.052;2023-03-21T11:37:43;100604.19;;;11.13;91.21
65997;BME280;52765;52.258;21.052;2023-03-21T11:40:25;100608.56;;;11.32;88.22
65997;BME280;52765;52.258;21.052;2023-03-21T11:42:56;100603.22;;;11.58;86.13
65997;BME280;52765;52.258;21.052;2023-03-21T11:45:33;100607.13;;;11.64;86.83
65997;BME280;52765;52.258;21.052;2023-03-21T11:48:03;100597.19;;;11.64;87.31
65997;BME280;52765;52.258;21.052;2023-03-21T11:55:51;100598.47;;;11.78;83.21
65997;BME280;52765;52.258;21.052;2023-03-21T12:04:03;100592.47;;;10.68;86.16
65997;BME280;52765;52.258;21.052;2023-03-21T12:06:37;100596.56;;;10.72;87.86
65997;BME280;52765;52.258;21.052;2023-03-21T12:09:21;100598.16;;;10.65;87.30
65997;BME280;52765;52.258;21.052;2023-03-21T12:14:18;100595.94;;;10.33;91.05
65997;BME280;52765;52.258;21.052;2023-03-21T12:17:05;100596.72;;;10.43;89.63
65997;BME280;52765;52.258;21.052;2023-03-21T12:25:05;100590.84;;;10.58;90.46
65997;BME280;52765;52.258;21.052;2023-03-21T12:39:31;100581.28;;;10.63;87.82
65997;BME280;52765;52.258;21.052;2023-03-21T12:45:10;100582.31;;;10.80;87.72
65997;BME280;52765;52.258;21.052;2023-03-21T12:47:39;100573.47;;;10.88;86.58
65997;BME280;52765;52.258;21.052;2023-03-21T12:50:21;100575.84;;;11.09;86.14
65997;BME280;52765;52.258;21.052;2023-03-21T12:53:00;100579.63;;;11.16;83.63
65997;BME280;52765;52.258;21.052;2023-03-21T12:55:38;100576.69;;;11.09;81.20
65997;BME280;52765;52.258;21.052;2023-03-21T12:58:15;100576.00;;;10.89;81.42
65997;BME280;52765;52.258;21.052;2023-03-21T13:00:46;100576.22;;;10.78;83.12
65997;BME280;52765;52.258;21.052;2023-03-21T13:03:55;100586.50;;;10.92;83.52
65997;BME280;52765;52.258;21.052;2023-03-21T13:06:24;100583.09;;;11.08;81.93
65997;BME280;52765;52.258;21.052;2023-03-21T13:09:08;100582.47;;;11.15;80.64
65997;BME280;52765;52.258;21.052;2023-03-21T13:11:36;100590.19;;;11.09;81.30
65997;BME280;52765;52.258;21.052;2023-03-21T13:16:54;100578.84;;;10.88;84.47
65997;BME280;52765;52.258;21.052;2023-03-21T13:19:50;100586.50;;;10.92;84.71
65997;BME280;52765;52.258;21.052;2023-03-21T13:22:27;100577.53;;;10.74;86.43
65997;BME280;52765;52.258;21.052;2023-03-21T13:24:59;100579.59;;;10.62;86.36
65997;BME280;52765;52.258;21.052;2023-03-21T13:27:32;100586.09;;;10.42;88.07
65997;BME280;52765;52.258;21.052;2023-03-21T13:32:39;100586.00;;;10.33;92.50
65997;BME280;52765;52.258;21.052;2023-03-21T13:37:41;100576.34;;;10.31;90.88
65997;BME280;52765;52.258;21.052;2023-03-21T13:40:23;100578.84;;;10.42;89.22
65997;BME280;52765;52.258;21.052;2023-03-21T13:42:54;100562.63;;;10.52;88.12
65997;BME280;52765;52.258;21.052;2023-03-21T13:45:50;100572.94;;;10.84;86.42
65997;BME280;52765;52.258;21.052;2023-03-21T13:48:29;100576.84;;;11.08;86.09
65997;BME280;52765;52.258;21.052;2023-03-21T13:51:03;100568.59;;;11.27;84.42
65997;BME280;52765;52.258;21.052;2023-03-21T13:53:40;100572.88;;;11.38;83.88
65997;BME280;52765;52.258;21.052;2023-03-21T14:01:23;100580.06;;;11.47;82.45
65997;BME280;52765;52.258;21.052;2023-03-21T14:03:58;100568.31;;;11.83;79.79
65997;BME280;52765;52.258;21.052;2023-03-21T14:06:35;100567.75;;;11.97;77.47
65997;BME280;52765;52.258;21.052;2023-03-21T14:09:02;100569.13;;;12.01;77.36
65997;BME280;52765;52.258;21.052;2023-03-21T14:11:30;100570.63;;;11.96;78.00
65997;BME280;52765;52.258;21.052;2023-03-21T14:13:58;100573.69;;;11.83;78.85
65997;BME280;52765;52.258;21.052;2023-03-21T14:16:25;100576.78;;;11.88;77.84